LPCC weather

Dr. Nélio Mendonça Hospital Heliport
Funchal, Autonomous Region of Madeira, Portugal

Public forecast

Using degrees Celsius for public forecast. Weather courtesy of forecast.io.

METAR (pilot weather report)

Closest report is Madeira Airport, 8.1 nm (15.0 km) ENE. Retrieved 2019/05/19 22:30 UTC (0 seconds ago):

LPMA 192230Z 36009KT 330V030 9999 -RADZ SCT015 17/15 Q1020

TAF (pilot weather forecast)

Closest forecast is Madeira Airport, 8.1 nm (15.0 km) ENE. Retrieved 2019/05/19 18:18 UTC (4 hours ago):

TAF LPMA 191700Z 1918/2018 01012KT 9999 SCT016 TEMPO 1918/2018 FEW015 BKN033 TEMPO 1918/1921 21008KT